Time;durP1;ratioP1;P1;durP2;ratioP2;P2;SDS_P1;SDS_P2;PMS_P1;PMS_P2;Temp;Humidity;BMP_temperature;BMP_pressure;BME280_temperature;BME280_humidity;BME280_pressure;Samples;Min_cycle;Max_cycle;Signal;HPM_P1;HPM_P2
2021/04/17 00:00:59;;;;;;;7.80;4.32;;;3.00;92.30;;;;;;5061609;28;20530;-77
2021/04/17 00:03:25;;;;;;;7.55;4.28;;;2.90;92.50;;;;;;5048677;28;20056;-77
2021/04/17 00:05:50;;;;;;;10.23;4.28;;;2.80;92.60;;;;;;5062587;28;20374;-77
2021/04/17 00:08:16;;;;;;;11.00;4.80;;;2.90;92.70;;;;;;5055041;28;20040;-77
2021/04/17 00:10:42;;;;;;;8.30;4.70;;;2.80;92.80;;;;;;5066616;28;20148;-77
2021/04/17 00:13:08;;;;;;;14.10;4.90;;;2.70;93.10;;;;;;5049555;28;20044;-78
2021/04/17 00:15:34;;;;;;;7.30;4.82;;;2.70;93.00;;;;;;5059132;28;20131;-78
2021/04/17 00:18:00;;;;;;;8.10;4.95;;;2.70;93.40;;;;;;5055703;28;20060;-78
2021/04/17 00:20:25;;;;;;;11.27;4.90;;;2.70;93.20;;;;;;5054956;28;20123;-78
2021/04/17 00:22:52;;;;;;;14.43;5.40;;;2.70;93.40;;;;;;5050138;28;20112;-78
2021/04/17 00:25:18;;;;;;;11.35;5.45;;;2.60;93.30;;;;;;5053651;28;20479;-78
2021/04/17 00:27:43;;;;;;;9.02;4.90;;;2.60;93.70;;;;;;5049760;28;20028;-78
2021/04/17 00:30:10;;;;;;;11.20;5.05;;;2.60;93.80;;;;;;5057585;28;20043;-78
2021/04/17 00:32:36;;;;;;;8.75;4.97;;;2.60;93.50;;;;;;5054524;28;20080;-78
2021/04/17 00:35:01;;;;;;;11.00;5.25;;;2.50;94.20;;;;;;5056202;28;20460;-78
2021/04/17 00:37:27;;;;;;;8.18;5.10;;;2.50;94.30;;;;;;5057334;28;20108;-78
2021/04/17 00:39:53;;;;;;;9.77;5.13;;;2.50;94.30;;;;;;5046393;28;20059;-78
2021/04/17 00:42:19;;;;;;;12.50;6.28;;;2.50;94.20;;;;;;5059656;28;20382;-78
2021/04/17 00:44:45;;;;;;;12.38;5.13;;;2.50;94.10;;;;;;5056383;28;20480;-78
2021/04/17 00:47:11;;;;;;;10.85;5.43;;;2.50;94.50;;;;;;5060132;28;20105;-78
2021/04/17 00:49:36;;;;;;;11.65;5.70;;;2.50;94.40;;;;;;5050037;28;20078;-78
2021/04/17 00:52:02;;;;;;;13.10;5.15;;;2.50;94.40;;;;;;5061673;28;20179;-78
2021/04/17 00:54:28;;;;;;;10.40;5.40;;;2.50;94.70;;;;;;5049602;28;20037;-78
2021/04/17 00:56:54;;;;;;;12.63;5.78;;;2.50;94.70;;;;;;5058551;28;21074;-78
2021/04/17 00:59:20;;;;;;;15.25;5.72;;;2.50;94.60;;;;;;5050133;28;20033;-78
2021/04/17 01:01:47;;;;;;;14.50;6.13;;;2.40;95.10;;;;;;5059004;28;20051;-78
2021/04/17 01:04:13;;;;;;;11.98;5.72;;;2.50;94.90;;;;;;5052639;28;20068;-78
2021/04/17 01:07:14;;;;;;;10.85;5.28;;;2.50;94.80;;;;;;5053504;28;20049;-78
2021/04/17 01:09:43;;;;;;;6.85;5.18;;;2.40;94.70;;;;;;5054024;28;20090;-77
2021/04/17 01:12:17;;;;;;;16.80;6.72;;;2.40;95.00;;;;;;5062635;28;20052;-77
2021/04/17 01:14:45;;;;;;;10.25;5.22;;;2.30;95.00;;;;;;5054333;28;20056;-77
2021/04/17 01:17:12;;;;;;;11.60;5.72;;;2.30;95.00;;;;;;5049625;28;20507;-77
2021/04/17 01:19:38;;;;;;;12.30;5.72;;;2.30;95.10;;;;;;5052533;28;20450;-77
2021/04/17 01:22:09;;;;;;;12.88;5.65;;;2.30;95.30;;;;;;5055860;28;20045;-77
2021/04/17 01:24:38;;;;;;;10.52;5.13;;;2.20;94.70;;;;;;5047557;28;20463;-78
2021/04/17 01:27:07;;;;;;;9.15;5.28;;;2.10;94.50;;;;;;5056137;28;20117;-78
2021/04/17 01:29:35;;;;;;;10.27;5.40;;;2.00;94.60;;;;;;5048827;28;20116;-78
2021/04/17 01:32:02;;;;;;;8.20;4.95;;;2.00;94.60;;;;;;5067458;28;20061;-78
2021/04/17 01:34:28;;;;;;;10.57;5.38;;;1.90;94.70;;;;;;5057101;28;20100;-78
2021/04/17 01:36:56;;;;;;;13.57;5.43;;;1.90;94.70;;;;;;5045931;28;20084;-77
2021/04/17 01:39:25;;;;;;;13.52;6.78;;;1.90;94.80;;;;;;5060956;28;20062;-77
2021/04/17 01:41:58;;;;;;;10.52;5.07;;;1.80;94.70;;;;;;5056856;28;20032;-77
2021/04/17 01:44:27;;;;;;;10.57;5.70;;;1.80;94.90;;;;;;5058759;28;20037;-77
2021/04/17 01:47:05;;;;;;;12.90;5.85;;;1.70;94.90;;;;;;5048574;28;20504;-78
2021/04/17 01:49:33;;;;;;;9.65;5.20;;;1.70;94.90;;;;;;5053326;28;20041;-77
2021/04/17 01:52:01;;;;;;;14.02;5.35;;;1.70;94.90;;;;;;5047876;28;20067;-77
2021/04/17 01:54:30;;;;;;;14.55;7.47;;;1.70;95.40;;;;;;5052862;28;20116;-77
2021/04/17 01:57:00;;;;;;;10.13;5.38;;;1.70;95.40;;;;;;5050829;28;20041;-78
2021/04/17 01:59:29;;;;;;;10.90;6.28;;;1.70;95.40;;;;;;5052674;28;20498;-78
2021/04/17 02:01:55;;;;;;;12.07;6.00;;;1.70;95.50;;;;;;5049892;28;20123;-78
2021/04/17 02:04:21;;;;;;;15.77;6.75;;;1.70;95.70;;;;;;5054624;28;20139;-78
2021/04/17 02:06:47;;;;;;;13.60;6.78;;;1.70;96.10;;;;;;5046433;28;20041;-78
2021/04/17 02:09:12;;;;;;;13.50;6.68;;;1.70;95.60;;;;;;5050802;28;20033;-77
2021/04/17 02:11:38;;;;;;;16.77;7.65;;;1.70;96.10;;;;;;5047476;28;20059;-78
2021/04/17 02:14:05;;;;;;;12.43;6.32;;;1.70;96.10;;;;;;5048622;28;20637;-77
2021/04/17 02:16:52;;;;;;;15.18;7.28;;;1.70;96.30;;;;;;5050030;28;20067;-78
2021/04/17 02:19:26;;;;;;;11.95;6.93;;;1.70;96.10;;;;;;5059365;28;20037;-78
2021/04/17 02:21:57;;;;;;;15.50;8.52;;;1.70;96.10;;;;;;5052160;28;20067;-78
2021/04/17 02:24:25;;;;;;;16.23;8.50;;;1.70;96.60;;;;;;5053359;28;20037;-78
2021/04/17 02:26:52;;;;;;;11.13;7.90;;;1.80;96.30;;;;;;5056521;28;20044;-77
2021/04/17 02:29:18;;;;;;;13.40;7.13;;;1.80;96.40;;;;;;5051532;28;20491;-77
2021/04/17 02:31:44;;;;;;;14.50;7.80;;;1.70;96.10;;;;;;5051809;28;20152;-78
2021/04/17 02:34:10;;;;;;;13.77;7.30;;;1.70;96.00;;;;;;5057732;28;20040;-78
2021/04/17 02:36:36;;;;;;;14.77;8.35;;;1.70;96.20;;;;;;5055526;28;20048;-77
2021/04/17 02:39:04;;;;;;;14.13;6.85;;;1.70;96.20;;;;;;5052484;28;20389;-77
2021/04/17 02:41:31;;;;;;;15.07;8.40;;;1.70;96.50;;;;;;5053919;28;20659;-78
2021/04/17 02:43:57;;;;;;;20.17;8.60;;;1.70;96.40;;;;;;5051965;28;20064;-77
2021/04/17 02:46:23;;;;;;;13.73;7.18;;;1.80;96.70;;;;;;5061859;28;20084;-77
2021/04/17 02:48:49;;;;;;;17.33;7.55;;;1.80;96.90;;;;;;5053306;28;20075;-77
2021/04/17 02:51:14;;;;;;;16.75;7.85;;;1.80;96.70;;;;;;5065123;28;20129;-77
2021/04/17 02:53:40;;;;;;;14.48;7.15;;;1.80;96.70;;;;;;5050969;28;20045;-78
2021/04/17 02:56:06;;;;;;;15.73;7.72;;;1.80;96.70;;;;;;5057252;28;20052;-78
2021/04/17 02:58:32;;;;;;;16.98;7.43;;;1.80;96.50;;;;;;5053646;28;20044;-78
2021/04/17 03:00:59;;;;;;;15.68;7.30;;;1.80;96.30;;;;;;5054953;28;20112;-78
2021/04/17 03:03:25;;;;;;;11.55;6.72;;;1.70;96.70;;;;;;5053115;28;20051;-78
2021/04/17 03:05:51;;;;;;;12.18;6.75;;;1.70;96.30;;;;;;5059853;28;20102;-78
2021/04/17 03:08:17;;;;;;;14.05;7.32;;;1.70;96.40;;;;;;5075156;28;20712;-78
2021/04/17 03:10:43;;;;;;;12.43;7.03;;;1.70;96.70;;;;;;5059897;28;20041;-78
2021/04/17 03:13:09;;;;;;;15.68;6.75;;;1.60;96.70;;;;;;5061027;28;20122;-78
2021/04/17 03:15:35;;;;;;;11.00;7.00;;;1.70;96.60;;;;;;5052239;28;20060;-76
2021/04/17 03:18:01;;;;;;;15.05;7.10;;;1.60;96.80;;;;;;5060631;28;20399;-76
2021/04/17 03:20:28;;;;;;;14.32;7.07;;;1.60;96.70;;;;;;5049347;28;20033;-77
2021/04/17 03:22:54;;;;;;;13.10;6.10;;;1.60;96.50;;;;;;5059776;28;20485;-78
2021/04/17 03:25:19;;;;;;;10.93;6.07;;;1.60;96.50;;;;;;5055777;28;20037;-78
2021/04/17 03:27:47;;;;;;;15.70;7.03;;;1.50;96.40;;;;;;5064279;28;20040;-77
2021/04/17 03:30:16;;;;;;;12.25;6.93;;;1.50;96.60;;;;;;5052751;28;20040;-77
2021/04/17 03:32:43;;;;;;;17.35;7.22;;;1.50;96.80;;;;;;5068684;28;20055;-77
2021/04/17 03:35:11;;;;;;;11.57;7.20;;;1.50;96.50;;;;;;5055132;28;20092;-78
2021/04/17 03:37:38;;;;;;;11.30;6.78;;;1.50;96.60;;;;;;5054376;28;20115;-78
2021/04/17 03:40:07;;;;;;;13.52;6.50;;;1.50;96.70;;;;;;5051181;28;20648;-78
2021/04/17 03:42:33;;;;;;;13.23;6.93;;;1.50;96.70;;;;;;5058709;28;20044;-78
2021/04/17 03:44:59;;;;;;;12.90;6.47;;;1.50;96.70;;;;;;5051424;28;20041;-78
2021/04/17 03:47:25;;;;;;;12.43;7.20;;;1.50;96.80;;;;;;5064745;28;20105;-77
2021/04/17 03:49:51;;;;;;;11.18;5.97;;;1.50;97.00;;;;;;5059244;28;20060;-77
2021/04/17 03:52:16;;;;;;;10.88;6.43;;;1.50;96.80;;;;;;5056387;28;20106;-77
2021/04/17 03:54:42;;;;;;;10.40;6.50;;;1.50;97.00;;;;;;5056574;28;20055;-77
2021/04/17 03:57:09;;;;;;;12.60;6.70;;;1.50;97.20;;;;;;5053114;28;20072;-77
2021/04/17 03:59:36;;;;;;;13.95;7.25;;;1.50;97.30;;;;;;5060861;28;20037;-77
2021/04/17 04:02:02;;;;;;;16.23;7.03;;;1.50;96.80;;;;;;5053140;28;20045;-78
2021/04/17 04:04:28;;;;;;;9.07;5.40;;;1.50;96.60;;;;;;5058407;28;20037;-78
2021/04/17 04:06:54;;;;;;;13.75;7.00;;;1.50;96.70;;;;;;5057172;28;20491;-78
2021/04/17 04:09:20;;;;;;;12.93;8.13;;;1.50;97.00;;;;;;5059583;28;20373;-77
2021/04/17 04:11:46;;;;;;;11.43;7.60;;;1.50;97.00;;;;;;5059424;28;20052;-77
2021/04/17 04:14:11;;;;;;;11.30;6.78;;;1.50;97.10;;;;;;5063012;28;20125;-78
2021/04/17 04:16:37;;;;;;;14.57;7.40;;;1.50;97.60;;;;;;5049898;28;20428;-77
2021/04/17 04:19:03;;;;;;;16.60;7.45;;;1.50;97.60;;;;;;5054978;28;20396;-77
2021/04/17 04:21:29;;;;;;;13.45;6.45;;;1.50;97.50;;;;;;5054904;28;20357;-77
2021/04/17 04:23:55;;;;;;;14.48;6.68;;;1.50;97.50;;;;;;5055243;28;20056;-78
2021/04/17 04:26:20;;;;;;;11.43;6.22;;;1.50;97.50;;;;;;5061642;28;20072;-78
2021/04/17 04:28:47;;;;;;;11.95;5.60;;;1.50;97.40;;;;;;5051691;28;20049;-78
2021/04/17 04:31:13;;;;;;;11.48;6.07;;;1.50;97.20;;;;;;5055758;28;20373;-78
2021/04/17 04:33:38;;;;;;;16.27;7.05;;;1.50;97.40;;;;;;5048483;28;20116;-78
2021/04/17 04:36:04;;;;;;;12.85;5.95;;;1.40;97.30;;;;;;5052810;28;20047;-78
2021/04/17 04:38:31;;;;;;;12.98;6.95;;;1.40;97.10;;;;;;5052189;28;20049;-77
2021/04/17 04:40:58;;;;;;;18.63;7.22;;;1.40;97.10;;;;;;5061270;28;20044;-77
2021/04/17 04:43:25;;;;;;;9.35;6.20;;;1.40;97.20;;;;;;5054430;28;20086;-78
2021/04/17 04:45:51;;;;;;;17.38;6.35;;;1.40;97.40;;;;;;5052772;28;20184;-78
2021/04/17 04:48:17;;;;;;;20.33;7.53;;;1.50;97.60;;;;;;5047491;28;20652;-78
2021/04/17 04:50:43;;;;;;;17.55;6.95;;;1.50;97.60;;;;;;5055244;28;20086;-78
2021/04/17 04:53:08;;;;;;;11.75;6.63;;;1.50;97.50;;;;;;5048572;28;20037;-78
2021/04/17 04:55:34;;;;;;;12.48;6.47;;;1.50;97.50;;;;;;5055115;28;20104;-78
2021/04/17 04:58:00;;;;;;;13.80;6.82;;;1.60;97.40;;;;;;5051242;28;20045;-78
2021/04/17 05:00:26;;;;;;;12.05;5.60;;;1.60;97.50;;;;;;5055962;28;20049;-78
2021/04/17 05:02:54;;;;;;;13.23;6.55;;;1.60;97.60;;;;;;5051133;28;20057;-78
2021/04/17 05:05:20;;;;;;;12.77;6.63;;;1.60;97.90;;;;;;5053048;28;20045;-78
2021/04/17 05:07:46;;;;;;;18.13;6.50;;;1.70;98.00;;;;;;5053138;28;20040;-78
2021/04/17 05:10:13;;;;;;;13.55;6.65;;;1.80;98.00;;;;;;5048710;28;20043;-78
2021/04/17 05:12:38;;;;;;;9.32;5.85;;;1.80;98.20;;;;;;5052922;28;20374;-78
2021/04/17 05:15:05;;;;;;;16.52;6.57;;;2.00;98.40;;;;;;5055826;28;20138;-78
2021/04/17 05:17:31;;;;;;;14.05;5.78;;;2.00;98.00;;;;;;5036300;28;20099;-78
2021/04/17 05:19:58;;;;;;;15.27;6.40;;;2.00;98.20;;;;;;5048044;28;20067;-78
2021/04/17 05:22:26;;;;;;;13.95;6.72;;;2.20;98.40;;;;;;5052615;28;20041;-78
2021/04/17 05:24:55;;;;;;;16.23;6.43;;;2.30;98.40;;;;;;5046130;28;20052;-76
2021/04/17 05:27:21;;;;;;;13.80;5.97;;;2.50;98.30;;;;;;5056130;28;20338;-79
2021/04/17 05:29:48;;;;;;;12.77;4.90;;;2.60;98.20;;;;;;5052930;28;20044;-78
2021/04/17 05:32:14;;;;;;;13.15;5.63;;;2.80;98.40;;;;;;5054872;28;20382;-78
2021/04/17 05:34:40;;;;;;;13.13;6.93;;;2.90;98.10;;;;;;5047687;28;20053;-78
2021/04/17 05:37:06;;;;;;;13.20;5.10;;;3.10;98.30;;;;;;5059206;28;20048;-78
2021/04/17 05:39:32;;;;;;;13.55;5.15;;;3.20;98.20;;;;;;5050477;28;20102;-77
2021/04/17 05:41:57;;;;;;;14.98;4.97;;;3.40;98.10;;;;;;5057049;28;20436;-78
2021/04/17 05:44:24;;;;;;;14.68;5.10;;;3.60;98.10;;;;;;5056148;28;20064;-77
2021/04/17 05:46:50;;;;;;;14.07;4.32;;;3.70;97.70;;;;;;5065442;28;20053;-78
2021/04/17 05:49:16;;;;;;;10.15;4.30;;;3.80;97.40;;;;;;5065379;28;20051;-78
2021/04/17 05:51:43;;;;;;;10.45;3.83;;;4.00;97.60;;;;;;5052664;28;20094;-78
2021/04/17 05:54:10;;;;;;;11.70;3.85;;;4.20;97.40;;;;;;5057682;28;20036;-78
2021/04/17 05:56:36;;;;;;;9.80;3.50;;;4.30;97.40;;;;;;5060570;28;20508;-78
2021/04/17 05:59:02;;;;;;;16.33;4.13;;;4.40;97.20;;;;;;5053635;28;20053;-78
2021/04/17 06:01:28;;;;;;;10.38;3.60;;;4.60;97.10;;;;;;5050285;28;20123;-78
2021/04/17 06:03:54;;;;;;;15.45;3.78;;;4.80;97.00;;;;;;5063165;28;20119;-78
2021/04/17 06:06:20;;;;;;;12.55;3.85;;;4.90;96.80;;;;;;5059538;28;20463;-78
2021/04/17 06:08:45;;;;;;;10.18;3.50;;;5.10;96.70;;;;;;5043175;28;20076;-78
2021/04/17 06:11:11;;;;;;;11.90;2.97;;;5.30;96.50;;;;;;5049776;28;20036;-78
2021/04/17 06:13:38;;;;;;;12.90;4.03;;;5.40;96.50;;;;;;5076945;28;20033;-78
2021/04/17 06:16:05;;;;;;;10.57;3.88;;;5.60;96.20;;;;;;5050606;28;20079;-78
2021/04/17 06:18:35;;;;;;;12.38;3.88;;;5.80;96.30;;;;;;5052573;28;20040;-78
2021/04/17 06:21:02;;;;;;;15.18;4.00;;;6.00;95.80;;;;;;5046464;28;20029;-78
2021/04/17 06:23:28;;;;;;;13.52;3.95;;;6.10;95.60;;;;;;5062016;28;20835;-78
2021/04/17 06:25:54;;;;;;;10.60;3.72;;;6.20;95.40;;;;;;5059610;28;20044;-78
2021/04/17 06:28:19;;;;;;;16.20;4.07;;;6.30;95.40;;;;;;5053157;28;20052;-78
2021/04/17 06:30:46;;;;;;;13.85;4.20;;;6.50;95.30;;;;;;5058693;28;20131;-78
2021/04/17 06:33:13;;;;;;;12.98;4.53;;;6.70;95.10;;;;;;5051844;28;20114;-78
2021/04/17 06:35:39;;;;;;;15.23;4.00;;;7.00;94.60;;;;;;5059738;28;20042;-78
2021/04/17 06:38:10;;;;;;;14.25;3.70;;;7.10;94.20;;;;;;5051357;28;20043;-77
2021/04/17 06:40:36;;;;;;;14.18;3.65;;;7.30;93.90;;;;;;5062110;28;20049;-78
2021/04/17 06:43:04;;;;;;;14.15;4.13;;;7.50;93.60;;;;;;5063535;28;20071;-78
2021/04/17 06:45:36;;;;;;;16.25;5.10;;;7.70;93.10;;;;;;5053199;28;20100;-78
2021/04/17 06:48:10;;;;;;;15.93;4.68;;;7.70;92.90;;;;;;5056844;28;20042;-77
2021/04/17 06:50:38;;;;;;;16.88;4.47;;;8.00;92.70;;;;;;5057473;28;20045;-78
2021/04/17 06:53:08;;;;;;;13.10;3.63;;;8.10;92.30;;;;;;5049819;28;20477;-78
2021/04/17 06:55:34;;;;;;;15.93;4.20;;;8.30;91.80;;;;;;5060358;28;20055;-77
2021/04/17 06:58:01;;;;;;;14.00;3.90;;;8.40;92.10;;;;;;5052227;28;20071;-78
2021/04/17 07:00:27;;;;;;;16.15;4.15;;;8.50;91.30;;;;;;5060816;28;20036;-78
2021/04/17 07:02:53;;;;;;;19.70;4.65;;;8.70;91.00;;;;;;5061510;28;20081;-77
2021/04/17 07:05:19;;;;;;;14.93;3.90;;;8.90;90.80;;;;;;5054920;28;20037;-78
2021/04/17 07:07:45;;;;;;;16.73;4.00;;;9.10;90.30;;;;;;5052457;28;20454;-78
2021/04/17 07:10:12;;;;;;;15.43;4.03;;;9.30;89.80;;;;;;5054564;28;20060;-78
2021/04/17 07:12:38;;;;;;;13.27;4.15;;;9.30;89.10;;;;;;5058324;28;20040;-78
2021/04/17 07:15:07;;;;;;;17.13;4.35;;;9.60;89.00;;;;;;5049484;28;20063;-78
2021/04/17 07:17:35;;;;;;;11.30;3.47;;;9.70;87.80;;;;;;5065487;28;20033;-78
2021/04/17 07:20:04;;;;;;;11.60;4.15;;;9.80;87.60;;;;;;5047046;28;20166;-78
2021/04/17 07:22:38;;;;;;;13.57;3.53;;;9.90;86.90;;;;;;5056476;28;20040;-78
2021/04/17 07:25:07;;;;;;;15.07;3.50;;;10.00;85.20;;;;;;5050015;28;20131;-78
2021/04/17 07:27:43;;;;;;;15.38;4.28;;;10.00;85.00;;;;;;5053082;28;20334;-78
2021/04/17 07:30:15;;;;;;;12.18;3.28;;;10.10;83.60;;;;;;5054558;28;20041;-78
2021/04/17 07:33:02;;;;;;;13.00;4.10;;;10.20;82.60;;;;;;5053041;28;20418;-79
2021/04/17 07:35:34;;;;;;;15.38;4.90;;;10.20;81.80;;;;;;5038587;28;20386;-78
2021/04/17 07:38:33;;;;;;;16.08;3.40;;;10.40;81.40;;;;;;5056636;28;20052;-78
2021/04/17 07:41:06;;;;;;;13.48;4.03;;;10.60;80.50;;;;;;5046604;28;20049;-78
2021/04/17 07:43:58;;;;;;;10.35;3.88;;;10.70;79.90;;;;;;5065893;28;20052;-77
2021/04/17 07:46:39;;;;;;;16.08;4.38;;;10.90;78.00;;;;;;5053058;28;20037;-77
2021/04/17 07:49:19;;;;;;;12.55;3.30;;;10.90;78.30;;;;;;5058300;28;20039;-80
2021/04/17 07:52:10;;;;;;;10.32;3.17;;;11.00;76.10;;;;;;5062828;28;20044;-77
2021/04/17 07:54:37;;;;;;;15.63;4.93;;;11.00;74.00;;;;;;5060988;28;20029;-77
2021/04/17 07:57:08;;;;;;;15.40;3.63;;;11.00;76.40;;;;;;5069822;28;20052;-76
2021/04/17 07:59:37;;;;;;;13.23;4.03;;;11.20;75.70;;;;;;5060884;28;20623;-78
2021/04/17 08:02:04;;;;;;;13.77;3.50;;;11.40;76.20;;;;;;5059767;28;20025;-78
2021/04/17 08:04:31;;;;;;;15.43;3.80;;;11.50;75.30;;;;;;5067897;28;20053;-78
2021/04/17 08:06:59;;;;;;;9.95;3.33;;;11.50;75.00;;;;;;5059087;28;20045;-78
2021/04/17 08:09:27;;;;;;;14.68;3.65;;;11.50;75.30;;;;;;5056573;28;20036;-79
2021/04/17 08:11:57;;;;;;;12.13;4.07;;;11.70;74.80;;;;;;5063053;28;20142;-79
2021/04/17 08:14:24;;;;;;;14.00;3.75;;;11.90;73.80;;;;;;5069838;28;20072;-79
2021/04/17 08:16:52;;;;;;;9.98;3.38;;;12.00;73.20;;;;;;5052112;28;20033;-79
2021/04/17 08:19:21;;;;;;;14.02;3.58;;;12.00;72.40;;;;;;5058037;28;20040;-79
2021/04/17 08:21:48;;;;;;;13.13;3.75;;;11.90;71.40;;;;;;5053672;28;20033;-79
2021/04/17 08:24:20;;;;;;;10.32;3.28;;;11.80;71.20;;;;;;5064329;28;20104;-79
2021/04/17 08:26:46;;;;;;;9.00;3.28;;;12.00;72.50;;;;;;5052570;28;20048;-79
2021/04/17 08:29:12;;;;;;;10.75;3.33;;;12.00;70.90;;;;;;5064867;28;20049;-79
2021/04/17 08:31:44;;;;;;;10.70;3.67;;;11.90;70.80;;;;;;5059088;28;20182;-78
2021/04/17 08:34:19;;;;;;;13.05;3.13;;;12.10;71.10;;;;;;5066166;28;20053;-79
2021/04/17 08:36:46;;;;;;;13.32;4.07;;;12.30;69.30;;;;;;5056117;28;20127;-79
2021/04/17 08:39:34;;;;;;;13.23;3.50;;;12.50;70.00;;;;;;5059442;28;20048;-79
2021/04/17 08:42:02;;;;;;;10.10;3.35;;;12.70;65.30;;;;;;5058257;28;20081;-79
2021/04/17 08:44:35;;;;;;;10.20;2.80;;;12.70;67.10;;;;;;5065658;28;20040;-79
2021/04/17 08:47:05;;;;;;;12.63;3.67;;;12.70;66.90;;;;;;5063991;28;20049;-79
2021/04/17 08:49:39;;;;;;;11.00;3.20;;;12.60;66.10;;;;;;5065862;28;20140;-79
2021/04/17 08:52:20;;;;;;;9.52;3.00;;;12.50;67.00;;;;;;5057816;28;20084;-79
2021/04/17 08:55:06;;;;;;;9.82;2.97;;;12.60;65.00;;;;;;5060803;28;20086;-80
2021/04/17 08:57:32;;;;;;;10.05;2.65;;;12.50;64.10;;;;;;5047711;28;20057;-79
2021/04/17 09:00:00;;;;;;;10.02;2.80;;;12.40;64.50;;;;;;5061811;28;20054;-79
2021/04/17 09:02:28;;;;;;;9.07;2.63;;;12.40;64.20;;;;;;5055257;28;20141;-79
2021/04/17 09:05:05;;;;;;;8.50;2.67;;;12.20;64.10;;;;;;5063682;28;20032;-79
2021/04/17 09:07:33;;;;;;;10.43;3.10;;;12.20;64.40;;;;;;5062460;28;20120;-79
2021/04/17 09:10:24;;;;;;;11.65;3.38;;;12.20;64.80;;;;;;5059046;28;20388;-79
2021/04/17 09:13:08;;;;;;;6.82;2.90;;;12.20;61.10;;;;;;5053488;28;20366;-79
2021/04/17 09:15:57;;;;;;;6.55;2.70;;;12.30;60.40;;;;;;5060486;28;20480;-79
2021/04/17 09:18:32;;;;;;;7.35;2.45;;;12.30;60.30;;;;;;5055425;28;20048;-79
2021/04/17 09:20:59;;;;;;;8.70;2.70;;;12.30;58.10;;;;;;5049853;28;20531;-79
2021/04/17 09:23:40;;;;;;;8.88;2.70;;;12.10;59.80;;;;;;5060154;28;20427;-79
2021/04/17 09:26:09;;;;;;;8.07;2.65;;;11.90;59.10;;;;;;5063599;28;20048;-80
2021/04/17 09:28:39;;;;;;;9.13;2.85;;;12.00;60.50;;;;;;5056630;28;20044;-79
2021/04/17 09:31:06;;;;;;;15.75;4.47;;;12.10;59.80;;;;;;5058917;28;20160;-79
2021/04/17 09:33:32;;;;;;;7.70;2.70;;;12.20;60.80;;;;;;5053470;28;20095;-78
2021/04/17 09:36:06;;;;;;;6.90;2.40;;;12.30;59.60;;;;;;5059278;28;20052;-79
2021/04/17 09:38:32;;;;;;;5.70;2.28;;;12.40;57.30;;;;;;5057510;28;20025;-78
2021/04/17 09:40:59;;;;;;;7.45;3.10;;;12.60;58.30;;;;;;5062351;28;20103;-80
2021/04/17 09:43:55;;;;;;;10.27;3.00;;;12.80;58.10;;;;;;5063181;28;20036;-79
2021/04/17 09:46:22;;;;;;;8.48;2.67;;;12.90;57.40;;;;;;5065839;28;20037;-80
2021/04/17 09:48:49;;;;;;;9.45;3.22;;;12.90;56.40;;;;;;5045526;28;20076;-79
2021/04/17 09:51:22;;;;;;;9.48;2.88;;;12.80;55.90;;;;;;5054751;28;20078;-79
2021/04/17 09:53:49;;;;;;;6.28;2.58;;;12.80;54.40;;;;;;5056473;28;20053;-79
2021/04/17 09:56:28;;;;;;;6.15;3.00;;;12.80;56.00;;;;;;5052764;28;20096;-79
2021/04/17 09:58:57;;;;;;;7.22;2.50;;;12.90;53.00;;;;;;5061114;28;20036;-78
2021/04/17 10:01:27;;;;;;;7.07;2.33;;;13.00;53.70;;;;;;5057690;28;20060;-79
2021/04/17 10:03:56;;;;;;;7.72;2.28;;;13.00;53.30;;;;;;5057530;28;20043;-79
2021/04/17 10:06:25;;;;;;;6.07;2.40;;;12.90;53.60;;;;;;5055175;28;20509;-79
2021/04/17 10:08:51;;;;;;;6.07;2.40;;;12.80;52.10;;;;;;5058764;28;20110;-78
2021/04/17 10:11:28;;;;;;;6.40;1.77;;;12.80;52.50;;;;;;5054716;28;20036;-79
2021/04/17 10:13:55;;;;;;;5.22;1.80;;;12.80;51.30;;;;;;5065375;28;20045;-79
2021/04/17 10:16:46;;;;;;;6.70;2.53;;;12.80;51.80;;;;;;5053084;28;20037;-80
2021/04/17 10:19:19;;;;;;;8.75;2.20;;;12.60;52.30;;;;;;5042208;28;20045;-79
2021/04/17 10:21:54;;;;;;;4.95;2.40;;;12.80;52.60;;;;;;5060777;28;20379;-78
2021/04/17 10:24:29;;;;;;;5.85;2.30;;;13.00;52.90;;;;;;5057398;28;20037;-79
2021/04/17 10:27:05;;;;;;;7.22;2.50;;;13.10;51.90;;;;;;5060001;28;20041;-79
2021/04/17 10:29:49;;;;;;;4.10;2.20;;;13.20;51.40;;;;;;5067576;28;20043;-78
2021/04/17 10:32:16;;;;;;;5.20;1.80;;;13.10;51.10;;;;;;5052772;28;20040;-79
2021/04/17 10:34:44;;;;;;;5.55;1.80;;;13.10;49.80;;;;;;5064188;28;20403;-79
2021/04/17 10:37:15;;;;;;;6.03;2.03;;;12.90;50.00;;;;;;5061301;28;20120;-79
2021/04/17 10:39:57;;;;;;;5.13;2.25;;;13.00;50.80;;;;;;5055723;28;20426;-79
2021/04/17 10:42:23;;;;;;;7.25;2.17;;;13.00;50.80;;;;;;5062403;28;20053;-79
2021/04/17 10:44:55;;;;;;;5.60;2.42;;;13.00;51.90;;;;;;5058947;28;20108;-79
2021/04/17 10:47:22;;;;;;;9.88;2.42;;;13.10;51.10;;;;;;5051782;28;20138;-79
2021/04/17 10:49:48;;;;;;;5.00;2.35;;;13.10;52.40;;;;;;5056277;28;20037;-79
2021/04/17 10:52:32;;;;;;;5.50;2.17;;;13.00;50.10;;;;;;5062948;28;20469;-79
2021/04/17 10:54:58;;;;;;;4.32;1.80;;;13.00;49.80;;;;;;5056346;28;20388;-79
2021/04/17 10:57:25;;;;;;;7.32;2.00;;;12.90;50.30;;;;;;5049610;28;20037;-79
2021/04/17 10:59:51;;;;;;;9.10;2.28;;;13.00;50.40;;;;;;5059246;28;20036;-79
2021/04/17 11:02:28;;;;;;;6.30;1.90;;;13.10;50.50;;;;;;5054241;28;20556;-79
2021/04/17 11:04:55;;;;;;;5.43;1.95;;;13.20;49.90;;;;;;5054514;28;20064;-79
2021/04/17 11:07:30;;;;;;;4.13;1.88;;;13.20;48.20;;;;;;5052742;28;20128;-80
2021/04/17 11:09:56;;;;;;;5.20;1.98;;;13.10;46.20;;;;;;5064942;28;20061;-79
2021/04/17 11:12:24;;;;;;;4.80;1.80;;;13.10;47.40;;;;;;5055569;28;20060;-79
2021/04/17 11:14:50;;;;;;;4.85;1.88;;;13.00;47.80;;;;;;5056382;28;20064;-79
2021/04/17 11:17:16;;;;;;;5.22;1.52;;;13.10;47.40;;;;;;5055333;28;20084;-79
2021/04/17 11:19:43;;;;;;;7.25;1.80;;;13.00;47.80;;;;;;5072553;28;20065;-79
2021/04/17 11:22:20;;;;;;;5.60;1.95;;;13.10;47.90;;;;;;5066976;28;20052;-79
2021/04/17 11:24:58;;;;;;;4.60;1.55;;;13.20;46.10;;;;;;5054021;28;20048;-79
2021/04/17 11:27:28;;;;;;;5.28;2.50;;;13.10;45.10;;;;;;5058320;28;20043;-79
2021/04/17 11:29:54;;;;;;;5.53;1.70;;;13.10;47.00;;;;;;5052096;28;20044;-79
2021/04/17 11:32:20;;;;;;;4.55;1.83;;;13.10;46.30;;;;;;5057927;28;20041;-79
2021/04/17 11:34:47;;;;;;;4.43;1.60;;;13.10;46.70;;;;;;5058477;28;20028;-79
2021/04/17 11:37:14;;;;;;;4.30;1.50;;;13.10;46.60;;;;;;5064173;28;20047;-79
2021/04/17 11:39:41;;;;;;;4.03;1.60;;;13.20;46.40;;;;;;5058984;28;20041;-80
2021/04/17 11:42:10;;;;;;;7.63;2.60;;;13.10;45.60;;;;;;5060619;28;20040;-80
2021/04/17 11:44:36;;;;;;;4.32;1.90;;;13.00;46.30;;;;;;5059736;28;20045;-79
2021/04/17 11:47:02;;;;;;;5.53;1.80;;;13.10;45.70;;;;;;5064668;28;20480;-79
2021/04/17 11:49:28;;;;;;;4.85;2.00;;;13.00;45.90;;;;;;5057157;28;20567;-79
2021/04/17 11:51:54;;;;;;;5.88;1.92;;;13.00;46.30;;;;;;5061053;28;20075;-79
2021/04/17 11:54:19;;;;;;;8.50;1.55;;;13.10;45.90;;;;;;5059361;28;20411;-80
2021/04/17 11:56:45;;;;;;;4.90;1.80;;;13.10;45.90;;;;;;5064854;28;20033;-80
2021/04/17 11:59:11;;;;;;;5.85;1.77;;;13.10;46.10;;;;;;5056495;28;20539;-80
2021/04/17 12:01:37;;;;;;;2.92;1.50;;;13.10;46.20;;;;;;5066422;28;20060;-80
2021/04/17 12:04:03;;;;;;;3.03;1.38;;;13.10;46.10;;;;;;5056067;28;20123;-80
2021/04/17 12:06:29;;;;;;;6.07;1.60;;;13.20;45.90;;;;;;5057771;28;20076;-80
2021/04/17 12:08:56;;;;;;;5.38;2.47;;;13.20;46.60;;;;;;5059926;28;20074;-79
2021/04/17 12:11:22;;;;;;;5.28;1.85;;;13.20;47.20;;;;;;5062445;28;20055;-79
2021/04/17 12:13:48;;;;;;;3.65;1.63;;;13.30;46.20;;;;;;5061580;28;20049;-79
2021/04/17 12:16:14;;;;;;;5.72;2.03;;;13.30;46.30;;;;;;5061497;28;20043;-79
2021/04/17 12:18:40;;;;;;;6.25;2.30;;;13.40;47.20;;;;;;5071058;28;20032;-79
2021/04/17 12:21:07;;;;;;;4.15;1.83;;;13.40;45.90;;;;;;5060047;28;20040;-80
2021/04/17 12:23:33;;;;;;;4.80;1.90;;;13.40;45.80;;;;;;5062651;28;20408;-80
2021/04/17 12:25:58;;;;;;;4.78;1.90;;;13.30;44.70;;;;;;5056004;28;20049;-80
2021/04/17 12:28:25;;;;;;;5.00;2.17;;;13.20;44.70;;;;;;5078670;28;20060;-80
2021/04/17 12:30:55;;;;;;;6.32;2.10;;;13.30;44.90;;;;;;5057714;28;20196;-80
2021/04/17 12:33:22;;;;;;;6.72;2.25;;;13.40;45.50;;;;;;5072688;28;20033;-80
2021/04/17 12:35:48;;;;;;;6.47;2.10;;;13.30;45.10;;;;;;5063559;28;20103;-79
2021/04/17 12:38:16;;;;;;;4.15;2.22;;;13.40;45.00;;;;;;5065549;28;20045;-79
2021/04/17 12:40:42;;;;;;;6.47;2.20;;;13.40;44.60;;;;;;5058930;28;20806;-79
2021/04/17 12:43:09;;;;;;;4.53;1.60;;;13.30;44.50;;;;;;5063263;28;20080;-79
2021/04/17 12:45:36;;;;;;;6.43;1.92;;;13.20;44.70;;;;;;5058699;28;20052;-79
2021/04/17 12:48:02;;;;;;;4.70;1.73;;;13.10;44.20;;;;;;5065934;28;20111;-79
2021/04/17 12:50:29;;;;;;;4.53;1.80;;;13.10;45.10;;;;;;5060927;28;20057;-79
2021/04/17 12:52:55;;;;;;;3.70;1.50;;;13.00;44.40;;;;;;5062838;28;20059;-79